Time;durP1;ratioP1;P1;durP2;ratioP2;P2;SDS_P1;SDS_P2;PMS_P1;PMS_P2;Temp;Humidity;BMP_temperature;BMP_pressure;BME280_temperature;BME280_humidity;BME280_pressure;Samples;Min_cycle;Max_cycle;Signal;HPM_P1;HPM_P2
2023/03/30 04:12:03;;;;;;;;;1.00;1.00;;;;;20.42;39.41;100480.09;5091133;27;45261;-41
2023/03/30 04:14:29;;;;;;;;;0.50;0.50;;;;;20.46;39.73;100477.19;5073475;28;45461;-40
2023/03/30 04:16:56;;;;;;;;;0.00;0.00;;;;;20.46;38.99;100471.06;5073411;28;45354;-42
2023/03/30 04:19:26;;;;;;;;;0.00;0.00;;;;;20.47;39.00;100472.75;5073513;28;45362;-39
2023/03/30 04:21:54;;;;;;;;;0.00;0.00;;;;;20.46;39.46;100477.19;5073109;28;46569;-39
2023/03/30 04:24:21;;;;;;;;;0.25;0.25;;;;;20.46;39.35;100474.53;5073195;28;45879;-42
2023/03/30 04:26:47;;;;;;;;;2.00;1.00;;;;;20.46;38.92;100471.06;5072022;28;45474;-38
2023/03/30 04:29:15;;;;;;;;;1.00;1.00;;;;;20.44;39.54;100470.31;5073312;28;45424;-38
2023/03/30 04:31:45;;;;;;;;;2.00;1.00;;;;;20.44;39.46;100483.50;5072945;28;45317;-38
2023/03/30 04:34:11;;;;;;;;;4.00;1.00;;;;;20.43;39.30;100481.78;5073007;28;45448;-39
2023/03/30 04:36:36;;;;;;;;;4.00;4.00;;;;;20.43;39.46;100487.06;5073695;28;45321;-39
2023/03/30 04:39:03;;;;;;;;;9.00;9.00;;;;;20.41;39.50;100487.13;5073314;28;45408;-39
2023/03/30 04:41:32;;;;;;;;;18.00;18.00;;;;;20.42;39.21;100482.72;5071434;28;47276;-38
2023/03/30 04:44:02;;;;;;;;;17.00;17.00;;;;;20.43;39.46;100479.16;5054570;28;45366;-38
2023/03/30 04:46:28;;;;;;;;;17.00;16.50;;;;;20.41;39.33;100478.41;5072857;28;45382;-40
2023/03/30 04:48:53;;;;;;;;;22.75;22.75;;;;;20.41;39.05;100478.41;5072964;28;45458;-38
2023/03/30 04:51:19;;;;;;;;;29.00;25.75;;;;;20.42;39.17;100496.72;5072622;28;46720;-39
2023/03/30 04:53:44;;;;;;;;;39.00;35.00;;;;;20.41;39.01;100489.75;5072176;28;56979;-38
2023/03/30 04:56:10;;;;;;;;;39.00;33.25;;;;;20.41;39.20;100500.28;5072988;28;45435;-38
2023/03/30 04:58:36;;;;;;;;;50.00;41.00;;;;;20.39;39.27;100495.13;5072773;28;45562;-39
2023/03/30 05:01:02;;;;;;;;;51.25;43.75;;;;;20.39;39.75;100500.41;5072383;28;47154;-40
2023/03/30 05:03:27;;;;;;;;;51.75;43.25;;;;;20.39;39.35;100503.03;5072397;27;45448;-44
2023/03/30 05:05:53;;;;;;;;;54.75;44.50;;;;;20.39;39.01;100507.47;5072619;27;45212;-39
2023/03/30 05:08:18;;;;;;;;;51.25;43.00;;;;;20.36;39.02;100503.19;5072644;28;45565;-40
2023/03/30 05:10:44;;;;;;;;;53.33;45.00;;;;;20.38;39.08;100508.41;5081680;27;46455;-39
2023/03/30 05:13:09;;;;;;;;;51.00;43.00;;;;;20.37;39.44;100509.31;5092969;27;45249;-40
2023/03/30 05:15:35;;;;;;;;;51.00;43.25;;;;;20.37;39.48;100523.31;5092802;27;45227;-39
2023/03/30 05:18:00;;;;;;;;;53.50;42.25;;;;;20.36;39.43;100520.78;5092871;27;45220;-40
2023/03/30 05:20:25;;;;;;;;;53.33;43.67;;;;;20.35;39.44;100533.09;5092584;27;46103;-40
2023/03/30 05:22:52;;;;;;;;;54.25;44.75;;;;;20.36;39.65;100537.41;5081481;27;55369;-42
2023/03/30 05:25:18;;;;;;;;;52.25;42.25;;;;;20.35;39.30;100548.03;5079024;27;45462;-40
2023/03/30 05:27:43;;;;;;;;;58.25;46.00;;;;;20.35;39.26;100540.97;5079168;28;45621;-39
2023/03/30 05:30:09;;;;;;;;;53.00;43.75;;;;;20.36;39.06;100550.56;5078815;28;46656;-39
2023/03/30 05:32:35;;;;;;;;;58.25;45.50;;;;;20.34;39.23;100557.72;5043776;28;45410;-40
2023/03/30 05:35:00;;;;;;;;;56.50;45.25;;;;;20.33;39.37;100561.31;5078851;27;45435;-42
2023/03/30 05:37:29;;;;;;;;;53.00;43.75;;;;;20.33;39.71;100556.03;5079107;28;45523;-42
2023/03/30 05:39:54;;;;;;;;;51.25;43.00;;;;;20.33;39.32;100558.69;5078672;28;45364;-41
2023/03/30 05:42:20;;;;;;;;;59.00;47.67;;;;;20.32;39.35;100564.88;5078721;27;45335;-40
2023/03/30 05:44:45;;;;;;;;;54.50;45.25;;;;;20.34;39.55;100562.97;5078500;27;45219;-41
2023/03/30 05:47:11;;;;;;;;;53.75;45.50;;;;;20.34;39.98;100567.41;5079262;27;45193;-41
2023/03/30 05:49:36;;;;;;;;;53.67;44.33;;;;;20.34;40.24;100572.66;5078066;28;54098;-39
2023/03/30 05:52:02;;;;;;;;;57.50;47.00;;;;;20.33;40.00;100563.94;5060226;28;45273;-42
2023/03/30 05:54:27;;;;;;;;;55.00;45.25;;;;;20.32;39.81;100572.78;5060408;28;45384;-39
2023/03/30 05:56:53;;;;;;;;;47.00;40.00;;;;;20.33;39.68;100576.22;5078870;27;45410;-39
2023/03/30 05:59:20;;;;;;;;;53.25;45.25;;;;;20.33;39.74;100584.13;5060026;28;45629;-41
2023/03/30 06:01:45;;;;;;;;;56.25;44.50;;;;;20.33;39.34;100573.59;5078437;27;45361;-37
2023/03/30 06:04:11;;;;;;;;;50.75;43.00;;;;;20.33;39.82;100582.38;5078730;28;45389;-38
2023/03/30 06:06:36;;;;;;;;;37.50;33.50;;;;;20.29;39.64;100585.25;5078465;28;45575;-38
2023/03/30 06:09:03;;;;;;;;;27.25;25.25;;;;;20.24;40.23;100589.00;5078053;28;45382;-38
2023/03/30 06:11:28;;;;;;;;;22.00;18.25;;;;;20.17;40.13;100602.59;5078049;28;45933;-39
2023/03/30 06:13:53;;;;;;;;;17.25;16.00;;;;;20.11;40.13;100597.69;5078237;28;45393;-39
2023/03/30 06:16:20;;;;;;;;;23.67;20.33;;;;;20.06;40.43;100605.84;5078195;27;45555;-38
2023/03/30 06:18:45;;;;;;;;;17.25;16.25;;;;;20.02;40.52;100601.69;5078265;27;46591;-39
2023/03/30 06:21:11;;;;;;;;;8.00;7.33;;;;;19.97;40.75;100607.22;5078058;28;48865;-39
2023/03/30 06:23:36;;;;;;;;;10.00;8.50;;;;;19.94;40.68;100604.75;5078195;27;45303;-39
2023/03/30 06:26:03;;;;;;;;;11.00;11.00;;;;;19.88;41.11;100608.56;5078382;27;45368;-38
2023/03/30 06:28:29;;;;;;;;;11.75;10.50;;;;;19.89;40.59;100614.69;5077855;28;46100;-38
2023/03/30 06:30:55;;;;;;;;;8.50;7.75;;;;;19.86;41.27;100614.88;5077861;28;45439;-39
2023/03/30 06:33:20;;;;;;;;;10.00;8.50;;;;;19.81;41.10;100609.84;5077024;28;45610;-39
2023/03/30 06:35:51;;;;;;;;;7.25;7.00;;;;;19.80;41.16;100620.41;5078318;28;45410;-38
2023/03/30 06:38:18;;;;;;;;;4.75;4.75;;;;;19.75;41.59;100625.94;5078084;28;47151;-38
2023/03/30 06:40:44;;;;;;;;;5.50;5.50;;;;;19.72;41.13;100632.22;5078275;28;45936;-39
2023/03/30 06:43:15;;;;;;;;;4.25;4.00;;;;;19.69;41.56;100627.13;5077789;27;45396;-38
2023/03/30 06:45:40;;;;;;;;;4.25;3.75;;;;;19.65;41.51;100644.03;5078230;28;45327;-40
2023/03/30 06:48:06;;;;;;;;;4.00;4.00;;;;;19.61;41.26;100638.09;5077567;28;45409;-39
2023/03/30 06:50:31;;;;;;;;;4.00;2.75;;;;;19.59;41.60;100654.84;5077660;28;45353;-38
2023/03/30 06:52:57;;;;;;;;;3.75;2.25;;;;;19.55;41.57;100653.34;5077822;28;45405;-38
2023/03/30 06:55:22;;;;;;;;;3.50;2.00;;;;;19.55;41.56;100654.19;5078502;27;45491;-39
2023/03/30 06:57:47;;;;;;;;;1.50;1.50;;;;;19.55;42.12;100653.34;5078415;28;46697;-38
2023/03/30 07:00:14;;;;;;;;;2.50;2.00;;;;;19.54;41.54;100668.25;5077780;28;45340;-38
2023/03/30 07:02:40;;;;;;;;;3.50;2.25;;;;;19.53;41.82;100668.34;5077631;28;45373;-38
2023/03/30 07:05:06;;;;;;;;;3.75;2.00;;;;;19.52;41.76;100669.28;5077808;27;45351;-38
2023/03/30 07:07:32;;;;;;;;;4.25;3.00;;;;;19.50;41.57;100676.38;5077272;28;46512;-39
2023/03/30 07:09:58;;;;;;;;;1.00;1.00;;;;;19.45;42.09;100674.88;5077168;28;45233;-38
2023/03/30 07:12:23;;;;;;;;;3.00;1.50;;;;;19.42;41.95;100675.03;5077377;28;45710;-38
2023/03/30 07:14:48;;;;;;;;;2.75;2.00;;;;;19.45;41.85;100679.25;5077917;28;45559;-38
2023/03/30 07:17:14;;;;;;;;;2.75;1.25;;;;;19.46;42.28;100676.53;5077512;28;46021;-38
2023/03/30 07:19:40;;;;;;;;;2.25;2.00;;;;;19.45;42.31;100680.13;5077161;28;45426;-38
2023/03/30 07:22:05;;;;;;;;;1.00;1.00;;;;;19.43;42.04;100681.13;5076755;28;57215;-38
2023/03/30 07:24:32;;;;;;;;;1.00;1.00;;;;;19.45;42.12;100688.00;5077453;28;45273;-38
2023/03/30 07:26:58;;;;;;;;;3.00;1.00;;;;;19.47;41.82;100695.81;5076952;27;46326;-38
2023/03/30 07:29:24;;;;;;;;;1.00;1.00;;;;;19.47;42.05;100699.25;5077047;28;45414;-39
2023/03/30 07:31:49;;;;;;;;;3.75;2.00;;;;;19.49;42.33;100698.34;5059251;28;45341;-38
2023/03/30 07:34:16;;;;;;;;;5.25;1.00;;;;;19.47;41.86;100699.25;5077602;28;45532;-38
2023/03/30 07:36:41;;;;;;;;;1.00;1.00;;;;;19.45;41.85;100695.91;5076857;28;45362;-38
2023/03/30 07:39:07;;;;;;;;;1.75;1.00;;;;;19.47;42.05;100694.00;5076554;28;55387;-38
2023/03/30 07:41:32;;;;;;;;;2.25;1.00;;;;;19.50;41.81;100697.41;5076847;28;45221;-38
2023/03/30 07:43:58;;;;;;;;;3.00;2.25;;;;;19.49;42.12;100695.72;5077130;28;45574;-39
2023/03/30 07:46:23;;;;;;;;;2.50;1.50;;;;;19.48;41.98;100694.88;5076511;28;45454;-40
2023/03/30 07:48:48;;;;;;;;;2.25;1.00;;;;;19.49;42.26;100700.97;5076825;28;49914;-39
2023/03/30 07:51:14;;;;;;;;;0.25;0.25;;;;;19.49;42.02;100708.84;5076997;28;45279;-40
2023/03/30 07:53:39;;;;;;;;;1.75;1.75;;;;;19.49;42.22;100708.84;5077054;27;45654;-39
2023/03/30 07:56:05;;;;;;;;;1.75;1.75;;;;;19.47;41.78;100709.78;5076534;28;46190;-39
2023/03/30 07:58:31;;;;;;;;;1.00;1.00;;;;;19.47;41.80;100720.28;5076625;28;45244;-39
2023/03/30 08:00:57;;;;;;;;;2.75;1.50;;;;;19.47;41.82;100712.41;5076831;27;45472;-39
2023/03/30 08:03:23;;;;;;;;;2.00;0.75;;;;;19.49;41.74;100716.75;5076806;28;45470;-39
2023/03/30 08:05:59;;;;;;;;;3.00;1.00;;;;;19.49;41.84;100719.38;5076730;27;46282;-38
2023/03/30 08:08:25;;;;;;;;;1.50;1.50;;;;;19.52;41.77;100717.41;5076083;28;45781;-38
2023/03/30 08:10:50;;;;;;;;;1.00;1.00;;;;;19.54;41.98;100717.34;5076782;28;45322;-38
2023/03/30 08:13:15;;;;;;;;;1.50;1.00;;;;;19.58;41.56;100727.63;5076782;27;45641;-39
2023/03/30 08:15:41;;;;;;;;;4.75;2.00;;;;;19.60;41.37;100736.28;5076252;28;46520;-39
2023/03/30 08:18:07;;;;;;;;;3.50;1.25;;;;;19.62;41.84;100730.94;5076360;28;45489;-39
2023/03/30 08:20:36;;;;;;;;;2.75;1.00;;;;;19.62;41.76;100723.88;5076563;27;45375;-39
2023/03/30 08:23:02;;;;;;;;;0.00;0.00;;;;;19.64;41.70;100736.97;5076624;28;45205;-39
2023/03/30 08:25:27;;;;;;;;;3.50;2.00;;;;;19.64;41.28;100742.22;5076065;28;46062;-39
2023/03/30 08:27:52;;;;;;;;;2.00;1.00;;;;;19.65;41.62;100737.81;5076621;28;45339;-39
2023/03/30 08:30:18;;;;;;;;;1.50;0.00;;;;;19.66;41.64;100737.75;5076735;28;45346;-39
2023/03/30 08:32:43;;;;;;;;;3.00;1.25;;;;;19.67;41.10;100744.72;5076726;28;45514;-39
2023/03/30 08:35:09;;;;;;;;;2.00;0.50;;;;;19.69;41.68;100741.97;5076110;28;46098;-40
2023/03/30 08:37:34;;;;;;;;;1.00;0.75;;;;;19.71;40.92;100737.50;5076108;28;45494;-39
2023/03/30 08:39:59;;;;;;;;;2.00;2.00;;;;;19.68;41.58;100743.75;5057985;27;45367;-39
2023/03/30 08:42:39;;;;;;;;;2.00;2.00;;;;;19.69;41.18;100745.44;5076200;28;45481;-39
2023/03/30 08:45:09;;;;;;;;;2.75;1.00;;;;;19.69;41.76;100749.88;5075894;28;47354;-38
2023/03/30 08:47:40;;;;;;;;;2.50;1.00;;;;;19.67;41.33;100763.09;5076140;28;45520;-39
2023/03/30 08:50:12;;;;;;;;;1.75;1.00;;;;;19.69;41.84;100757.75;5075973;28;45272;-39
2023/03/30 08:52:40;;;;;;;;;1.75;0.50;;;;;19.67;41.49;100760.47;5057971;28;45523;-39
2023/03/30 08:55:23;;;;;;;;;2.00;2.00;;;;;19.69;41.71;100766.47;5057676;28;48096;-39
2023/03/30 08:58:04;;;;;;;;;1.00;1.00;;;;;19.70;41.70;100768.19;5077929;28;45754;-39
2023/03/30 09:00:37;;;;;;;;;5.50;2.00;;;;;19.69;41.74;100773.53;5079707;28;45422;-39
2023/03/30 09:03:18;;;;;;;;;3.00;1.00;;;;;19.66;41.69;100774.56;5079580;28;45437;-39
2023/03/30 09:05:54;;;;;;;;;2.00;0.75;;;;;19.68;41.54;100775.28;5079453;28;45425;-38
2023/03/30 09:08:27;;;;;;;;;0.75;0.75;;;;;19.70;41.45;100776.06;5079477;28;45844;-39
2023/03/30 09:11:10;;;;;;;;;3.75;1.75;;;;;19.71;41.49;100780.41;5079388;27;45288;-39
2023/03/30 09:13:37;;;;;;;;;1.00;1.00;;;;;19.71;41.75;100777.78;5062184;27;45536;-39
2023/03/30 09:16:15;;;;;;;;;3.00;2.00;;;;;19.71;41.83;100777.78;5079078;28;45366;-39
2023/03/30 09:18:43;;;;;;;;;1.50;1.50;;;;;19.72;41.61;100781.28;5078923;28;45406;-39
2023/03/30 09:21:11;;;;;;;;;3.75;2.00;;;;;19.72;41.80;100783.91;5079385;28;45396;-38
2023/03/30 09:23:38;;;;;;;;;1.00;1.00;;;;;19.71;41.56;100788.28;5079354;28;45613;-39
2023/03/30 09:26:13;;;;;;;;;3.00;1.25;;;;;19.71;41.72;100784.81;5078787;27;46559;-38
2023/03/30 09:28:57;;;;;;;;;2.25;1.00;;;;;19.70;41.93;100783.97;5079124;28;45318;-38
2023/03/30 09:31:43;;;;;;;;;1.00;1.00;;;;;19.72;42.03;100786.53;5079270;28;45377;-38
2023/03/30 09:34:39;;;;;;;;;3.00;1.00;;;;;19.73;41.67;100782.97;5061012;27;45461;-39
2023/03/30 09:37:17;;;;;;;;;4.50;2.00;;;;;19.72;41.81;100787.38;5075279;27;46584;-39
2023/03/30 09:39:44;;;;;;;;;5.00;2.75;;;;;19.74;41.70;100793.41;5060763;28;45887;-39
2023/03/30 09:42:36;;;;;;;;;2.50;2.50;;;;;19.75;41.84;100789.84;5078876;28;45433;-39
2023/03/30 09:45:21;;;;;;;;;4.50;2.00;;;;;19.75;41.65;100796.88;5079046;27;45524;-39
2023/03/30 09:47:46;;;;;;;;;3.00;1.50;;;;;19.75;41.91;100792.47;5078785;28;45515;-38
2023/03/30 09:50:23;;;;;;;;;3.50;3.00;;;;;19.76;42.11;100788.91;5078689;28;45239;-38
2023/03/30 09:52:59;;;;;;;;;2.50;1.25;;;;;19.77;41.70;100792.38;5060538;27;45308;-38
2023/03/30 09:55:33;;;;;;;;;2.00;2.00;;;;;19.75;41.74;100797.72;5079356;28;45361;-39
2023/03/30 09:58:20;;;;;;;;;3.00;1.75;;;;;19.78;41.62;100791.44;5078706;28;45504;-37
2023/03/30 10:00:59;;;;;;;;;2.50;1.50;;;;;19.80;41.92;100800.13;5078455;28;45396;-35
2023/03/30 10:03:26;;;;;;;;;1.00;1.00;;;;;19.82;41.86;100800.88;5079055;28;45255;-36
2023/03/30 10:06:06;;;;;;;;;4.75;2.00;;;;;19.85;41.87;100791.97;5078841;28;45542;-35
2023/03/30 10:08:32;;;;;;;;;1.00;1.00;;;;;19.86;41.96;100806.88;5077579;28;46402;-36
2023/03/30 10:10:59;;;;;;;;;1.75;1.75;;;;;19.89;41.46;100809.34;5078478;28;45607;-38
2023/03/30 10:13:35;;;;;;;;;3.00;2.00;;;;;19.89;41.35;100806.72;5078882;27;45351;-35
2023/03/30 10:16:11;;;;;;;;;1.25;0.75;;;;;19.89;41.76;100799.66;5078472;28;45517;-38
2023/03/30 10:18:43;;;;;;;;;5.00;2.00;;;;;19.94;41.82;100815.19;5078198;27;46767;-39
2023/03/30 10:21:11;;;;;;;;;6.00;1.00;;;;;19.97;41.71;100816.81;5078225;27;45244;-38
2023/03/30 10:23:40;;;;;;;;;3.00;2.50;;;;;19.96;41.71;100801.94;5078419;28;45316;-38
2023/03/30 10:26:14;;;;;;;;;4.75;1.75;;;;;19.97;41.44;100807.16;5093820;27;45517;-39
2023/03/30 10:28:49;;;;;;;;;3.50;1.00;;;;;20.00;41.69;100801.72;5060398;28;45411;-38
2023/03/30 10:31:15;;;;;;;;;4.00;1.00;;;;;20.03;41.67;100805.97;5078016;28;45978;-38
2023/03/30 10:33:43;;;;;;;;;3.00;1.00;;;;;20.03;41.25;100801.53;5078070;28;45309;-38
2023/03/30 10:36:12;;;;;;;;;3.00;1.50;;;;;20.03;41.51;100801.53;5059945;28;45510;-38
2023/03/30 10:38:40;;;;;;;;;2.50;1.50;;;;;20.04;41.37;100803.25;5077766;27;45644;-38
2023/03/30 10:41:11;;;;;;;;;5.00;2.00;;;;;20.02;41.26;100799.00;5078249;28;45415;-38
2023/03/30 10:43:38;;;;;;;;;2.50;1.00;;;;;20.05;41.37;100797.06;5078018;27;45221;-38
2023/03/30 10:46:14;;;;;;;;;1.25;1.25;;;;;20.07;41.02;100787.31;5078101;28;45447;-38
2023/03/30 10:48:55;;;;;;;;;2.25;1.25;;;;;20.08;41.03;100782.88;5059455;28;47234;-38
2023/03/30 10:51:31;;;;;;;;;2.25;2.00;;;;;20.10;41.01;100785.44;5077933;28;45302;-38
2023/03/30 10:54:16;;;;;;;;;2.00;2.00;;;;;20.11;41.07;100781.88;5078180;28;45657;-38
2023/03/30 10:56:55;;;;;;;;;2.00;2.00;;;;;20.13;40.71;100780.00;5078105;27;45267;-38
2023/03/30 10:59:32;;;;;;;;;1.25;1.00;;;;;20.12;40.63;100775.69;5077458;28;46498;-38
2023/03/30 11:02:10;;;;;;;;;1.00;1.00;;;;;20.12;40.85;100778.31;5077977;27;45245;-38
2023/03/30 11:04:45;;;;;;;;;2.75;1.50;;;;;20.13;40.56;100782.63;5077638;28;45275;-38
2023/03/30 11:07:41;;;;;;;;;3.00;2.00;;;;;20.12;40.53;100792.31;5077615;28;45461;-38
2023/03/30 11:10:17;;;;;;;;;3.25;1.00;;;;;20.14;40.62;100784.31;5072894;28;45457;-38
2023/03/30 11:12:48;;;;;;;;;3.75;1.25;;;;;20.15;40.87;100783.38;5077387;28;45351;-38
2023/03/30 11:15:20;;;;;;;;;2.25;2.00;;;;;20.15;40.71;100788.66;5077585;28;45240;-39
2023/03/30 11:17:59;;;;;;;;;5.25;2.75;;;;;20.16;40.60;100785.09;5059372;28;45444;-38
2023/03/30 11:20:35;;;;;;;;;0.25;0.00;;;;;20.18;40.54;100762.19;5076594;27;46485;-38
2023/03/30 11:23:06;;;;;;;;;3.00;0.75;;;;;20.19;40.66;100784.94;5077298;28;45390;-38
2023/03/30 11:25:40;;;;;;;;;1.25;1.25;;;;;20.19;40.48;100793.66;5077719;28;45327;-38
2023/03/30 11:28:21;;;;;;;;;3.00;3.00;;;;;20.18;40.47;100780.59;5077407;27;45414;-39
2023/03/30 11:30:52;;;;;;;;;2.25;2.00;;;;;20.19;40.42;100783.13;5076925;28;45440;-38
2023/03/30 11:33:44;;;;;;;;;1.00;1.00;;;;;20.17;40.08;100777.13;5058726;28;45272;-38
2023/03/30 11:36:17;;;;;;;;;2.00;1.00;;;;;20.19;40.27;100779.66;5077302;28;45311;-38
2023/03/30 11:38:57;;;;;;;;;1.50;1.50;;;;;20.18;40.57;100772.72;5077121;28;45398;-37
2023/03/30 11:41:30;;;;;;;;;3.00;3.00;;;;;20.17;40.68;100771.00;5076678;28;46443;-38
2023/03/30 11:43:56;;;;;;;;;2.50;2.50;;;;;20.16;40.44;100783.31;5076972;28;45870;-39
2023/03/30 11:46:38;;;;;;;;;3.00;2.00;;;;;20.17;40.46;100776.28;5076950;28;45445;-38
2023/03/30 11:49:19;;;;;;;;;4.75;2.25;;;;;20.15;40.41;100786.03;5077267;28;45421;-38
2023/03/30 11:51:56;;;;;;;;;6.50;2.25;;;;;20.17;40.43;100781.53;5076570;28;47191;-38
2023/03/30 11:54:51;;;;;;;;;1.75;1.75;;;;;20.16;40.69;100782.47;5076803;28;45825;-38
2023/03/30 11:57:28;;;;;;;;;5.50;2.00;;;;;20.15;40.55;100776.38;5076734;28;45221;-38
2023/03/30 12:00:09;;;;;;;;;2.00;1.75;;;;;20.17;40.42;100792.91;5076509;27;45409;-38
2023/03/30 12:03:07;;;;;;;;;6.25;2.00;;;;;20.16;40.41;100798.25;5076857;27;46145;-38
2023/03/30 12:05:55;;;;;;;;;2.00;2.00;;;;;20.17;40.74;100787.66;5090187;27;45289;-38
2023/03/30 12:08:47;;;;;;;;;3.75;1.50;;;;;20.16;40.89;100785.09;5076592;28;45386;-39
2023/03/30 12:11:37;;;;;;;;;2.75;2.00;;;;;20.17;41.04;100777.13;5076613;28;45428;-39
2023/03/30 12:14:13;;;;;;;;;4.00;3.00;;;;;20.22;40.79;100776.88;5076744;28;46404;-39
2023/03/30 12:16:48;;;;;;;;;3.75;3.00;;;;;20.26;40.78;100762.59;5076549;28;45330;-38
2023/03/30 12:19:24;;;;;;;;;3.00;0.25;;;;;20.30;40.81;100769.41;5076688;28;45251;-39
2023/03/30 12:22:00;;;;;;;;;3.00;2.00;;;;;20.32;40.75;100764.03;5076890;28;45444;-40
2023/03/30 12:24:46;;;;;;;;;2.75;2.75;;;;;20.34;40.60;100764.81;5076404;27;46420;-37
2023/03/30 12:27:11;;;;;;;;;3.25;2.00;;;;;20.35;41.25;100762.09;5091919;27;45746;-36
2023/03/30 12:29:50;;;;;;;;;3.00;2.67;;;;;20.36;41.25;100761.16;5057703;28;60255;-37
2023/03/30 12:32:26;;;;;;;;;4.00;2.50;;;;;20.37;40.97;100749.69;5077551;27;45271;-37
2023/03/30 12:34:52;;;;;;;;;3.50;2.75;;;;;20.39;41.03;100755.72;5079827;28;46550;-36
2023/03/30 12:37:36;;;;;;;;;3.50;2.00;;;;;20.42;40.84;100743.34;5079778;28;46393;-37
2023/03/30 12:40:13;;;;;;;;;8.25;2.00;;;;;20.42;41.25;100738.06;5079958;28;45325;-35
2023/03/30 12:42:45;;;;;;;;;2.25;2.25;;;;;20.43;41.20;100735.34;5080009;27;45566;-37
2023/03/30 12:45:19;;;;;;;;;5.75;1.75;;;;;20.45;41.19;100737.91;5079400;27;46265;-35
2023/03/30 12:48:21;;;;;;;;;3.50;2.75;;;;;20.45;41.20;100728.19;5079550;28;45876;-37
2023/03/30 12:50:57;;;;;;;;;1.75;1.50;;;;;20.46;41.19;100729.03;5079508;27;45339;-35
2023/03/30 12:54:16;;;;;;;;;2.00;1.00;;;;;20.47;41.22;100720.22;5079890;27;45629;-36
2023/03/30 12:56:56;;;;;;;;;1.75;1.75;;;;;20.47;40.95;100722.84;5037024;28;46114;-35
2023/03/30 13:00:06;;;;;;;;;3.75;2.00;;;;;20.47;40.68;100720.22;5079480;27;45257;-35
2023/03/30 13:03:09;;;;;;;;;7.25;2.00;;;;;20.49;40.67;100736.78;5077363;27;45326;-37
2023/03/30 13:05:40;;;;;;;;;4.50;1.00;;;;;20.47;40.94;100725.47;5080061;28;45383;-37
2023/03/30 13:08:28;;;;;;;;;4.75;2.75;;;;;20.46;40.53;100723.78;5079710;28;45563;-36
2023/03/30 13:11:10;;;;;;;;;2.25;1.00;;;;;20.49;40.54;100726.25;5060808;28;46194;-37
2023/03/30 13:13:50;;;;;;;;;1.00;1.00;;;;;20.52;41.08;100712.91;5079805;27;45441;-37
2023/03/30 13:16:49;;;;;;;;;2.50;2.00;;;;;20.52;40.62;100708.47;5079670;28;45392;-38
2023/03/30 13:19:35;;;;;;;;;4.00;1.00;;;;;20.51;41.05;100716.47;5079170;28;46742;-38
2023/03/30 13:22:10;;;;;;;;;2.50;1.50;;;;;20.52;40.63;100712.91;5078969;27;45762;-40
2023/03/30 13:24:41;;;;;;;;;2.25;1.50;;;;;20.50;40.49;100715.63;5079720;28;45287;-38
2023/03/30 13:27:22;;;;;;;;;1.25;1.00;;;;;20.49;40.96;100715.72;5079739;28;45563;-38
2023/03/30 13:30:07;;;;;;;;;1.00;1.00;;;;;20.46;40.81;100698.31;5078805;27;46469;-38
2023/03/30 13:32:38;;;;;;;;;1.50;1.00;;;;;20.47;40.87;100693.88;5071597;27;45865;-38
2023/03/30 13:35:49;;;;;;;;;2.00;2.00;;;;;20.45;40.93;100691.34;5079078;27;45282;-38
2023/03/30 13:38:39;;;;;;;;;3.00;0.00;;;;;20.44;40.40;100694.09;5076953;27;45468;-38
2023/03/30 13:41:07;;;;;;;;;0.00;0.00;;;;;20.44;40.67;100687.03;5060431;28;46234;-38
2023/03/30 13:43:55;;;;;;;;;3.75;1.50;;;;;20.43;40.50;100682.69;5078373;28;45751;-40
2023/03/30 13:46:21;;;;;;;;;3.00;1.25;;;;;20.43;40.83;100679.22;5078771;27;45451;-39
2023/03/30 13:49:10;;;;;;;;;1.00;1.00;;;;;20.43;40.46;100685.31;5079048;28;45272;-38
2023/03/30 13:51:37;;;;;;;;;1.75;1.00;;;;;20.43;40.32;100661.63;5078495;28;45335;-39
2023/03/30 13:54:12;;;;;;;;;1.25;1.00;;;;;20.42;40.77;100664.34;5078608;28;45805;-39
2023/03/30 13:56:42;;;;;;;;;0.50;0.50;;;;;20.42;40.21;100664.34;5060872;28;45490;-39
2023/03/30 13:59:15;;;;;;;;;1.00;1.00;;;;;20.42;40.64;100675.72;5079137;28;45647;-39
2023/03/30 14:01:47;;;;;;;;;2.00;2.00;;;;;20.43;40.86;100661.63;5078706;28;45557;-38
2023/03/30 14:04:15;;;;;;;;;3.25;0.50;;;;;20.43;40.28;100660.78;5078794;27;45722;-39
2023/03/30 14:06:45;;;;;;;;;1.75;1.00;;;;;20.44;40.42;100655.44;5060668;28;45378;-39
2023/03/30 14:09:17;;;;;;;;;2.75;1.00;;;;;20.44;40.47;100671.22;5079039;28;45482;-39
2023/03/30 14:11:46;;;;;;;;;1.00;1.00;;;;;20.44;40.28;100657.22;5078405;28;47157;-39
2023/03/30 14:14:26;;;;;;;;;1.25;1.00;;;;;20.44;40.62;100665.97;5078614;27;45643;-39
2023/03/30 14:16:52;;;;;;;;;2.50;1.00;;;;;20.42;40.15;100665.19;5078520;27;45288;-38
2023/03/30 14:19:28;;;;;;;;;1.00;1.00;;;;;20.42;40.04;100665.19;5078456;28;45243;-39
2023/03/30 14:22:01;;;;;;;;;1.25;0.25;;;;;20.43;40.28;100660.78;5077892;28;46602;-38
2023/03/30 14:24:32;;;;;;;;;1.00;0.25;;;;;20.42;40.50;100665.19;5078240;28;45477;-38
2023/03/30 14:27:06;;;;;;;;;1.00;1.00;;;;;20.42;40.57;100669.63;5078297;27;45358;-38
2023/03/30 14:29:32;;;;;;;;;2.00;1.00;;;;;20.41;40.07;100657.41;5077599;28;45229;-38
2023/03/30 14:32:00;;;;;;;;;2.00;0.00;;;;;20.40;40.16;100653.91;5077877;28;46517;-38
2023/03/30 14:34:28;;;;;;;;;1.75;1.75;;;;;20.40;40.49;100651.25;5078007;28;45464;-38
2023/03/30 14:36:59;;;;;;;;;1.00;1.00;;;;;20.38;40.31;100664.53;5078163;28;45397;-38
2023/03/30 14:39:24;;;;;;;;;0.75;0.50;;;;;20.38;40.60;100659.25;5078340;27;45333;-39
2023/03/30 14:41:51;;;;;;;;;1.00;1.00;;;;;20.43;40.21;100666.06;5078076;27;46336;-39
2023/03/30 14:44:21;;;;;;;;;1.00;1.00;;;;;20.43;40.22;100645.84;5077879;28;45946;-40
2023/03/30 14:46:49;;;;;;;;;0.50;0.50;;;;;20.43;40.49;100642.38;5077982;28;45240;-43
2023/03/30 14:49:27;;;;;;;;;0.00;0.00;;;;;20.44;40.42;100658.06;5060333;28;45555;-39
2023/03/30 14:52:00;;;;;;;;;1.00;1.00;;;;;20.44;40.06;100667.75;5077196;28;45480;-39
2023/03/30 14:54:26;;;;;;;;;1.00;1.00;;;;;20.43;40.54;100661.63;5076868;28;45640;-39
2023/03/30 14:56:56;;;;;;;;;1.00;1.00;;;;;20.43;40.71;100676.59;5042701;27;45433;-39
2023/03/30 14:59:23;;;;;;;;;2.25;1.00;;;;;20.43;40.53;100666.06;5077984;28;45608;-39
2023/03/30 15:01:49;;;;;;;;;1.00;0.75;;;;;20.43;40.26;100663.44;5077565;28;45390;-41
2023/03/30 15:04:16;;;;;;;;;0.00;0.00;;;;;20.42;40.10;100653.81;5077932;28;45342;-41
2023/03/30 15:06:44;;;;;;;;;1.75;0.25;;;;;20.43;40.42;100652.91;5078193;28;45506;-39
2023/03/30 15:09:19;;;;;;;;;1.00;1.00;;;;;20.44;40.27;100646.69;5077881;28;45231;-41
2023/03/30 15:11:49;;;;;;;;;0.00;0.00;;;;;20.46;40.74;100634.25;5077527;28;46377;-38
2023/03/30 15:14:19;;;;;;;;;1.00;1.00;;;;;20.43;40.51;100618.66;5059406;28;45845;-38
2023/03/30 15:16:52;;;;;;;;;0.50;0.50;;;;;20.44;40.78;100631.72;5077737;28;45305;-42
2023/03/30 15:19:30;;;;;;;;;2.00;0.00;;;;;20.46;40.71;100624.59;5059336;28;45548;-39
2023/03/30 15:22:02;;;;;;;;;1.00;1.00;;;;;20.45;40.43;100622.06;5077123;27;46549;-39
2023/03/30 15:24:33;;;;;;;;;2.75;0.00;;;;;20.46;40.48;100623.72;5077026;28;45819;-39
2023/03/30 15:27:02;;;;;;;;;1.50;0.50;;;;;20.46;40.49;100607.94;5077435;28;45417;-39
2023/03/30 15:29:28;;;;;;;;;2.00;1.00;;;;;20.45;40.63;100607.09;5059481;28;45607;-38
2023/03/30 15:32:10;;;;;;;;;2.25;1.00;;;;;20.45;40.47;100601.00;5058769;28;46964;-39
2023/03/30 15:34:36;;;;;;;;;0.25;0.25;;;;;20.46;40.85;100589.50;5077151;27;45393;-39
2023/03/30 15:37:01;;;;;;;;;1.00;1.00;;;;;20.45;40.56;100587.84;5077352;28;45355;-38
2023/03/30 15:39:35;;;;;;;;;1.50;0.00;;;;;20.46;40.99;100577.22;5077338;28;45440;-41
2023/03/30 15:42:00;;;;;;;;;0.75;0.75;;;;;20.45;40.62;100561.53;5077167;28;46399;-39
2023/03/30 15:44:26;;;;;;;;;1.00;0.00;;;;;20.46;40.39;100581.63;5076955;27;45426;-43
2023/03/30 15:46:57;;;;;;;;;1.00;1.00;;;;;20.45;40.73;100564.16;5058812;28;45417;-40
2023/03/30 15:49:46;;;;;;;;;0.50;0.00;;;;;20.46;40.46;100578.97;5077166;28;45467;-39
2023/03/30 15:52:18;;;;;;;;;2.00;0.25;;;;;20.45;40.69;100569.41;5058226;28;48120;-38
2023/03/30 15:54:51;;;;;;;;;1.00;1.00;;;;;20.46;40.85;100565.81;5076838;28;45825;-39